Time;durP1;ratioP1;P1;durP2;ratioP2;P2;SDS_P1;SDS_P2;PMS_P1;PMS_P2;Temp;Humidity;BMP_temperature;BMP_pressure;BME280_temperature;BME280_humidity;BME280_pressure;Samples;Min_cycle;Max_cycle;Signal;HPM_P1;HPM_P2
2022/08/23 00:00:45;;;;;;;;;;;;;;;20.65;67.03;101554.34;2088955;28;20191;-66
2022/08/23 00:01:53;;;;;;;0.20;0.20;;;;;;;20.75;66.96;101553.59;2088768;28;19928;-66
2022/08/23 00:02:58;;;;;;;0.20;0.20;;;;;;;20.76;67.03;101555.13;2088068;28;20457;-65
2022/08/23 00:04:06;;;;;;;0.20;0.20;;;;;;;20.79;66.83;101554.34;2085223;28;20603;-65
2022/08/23 00:05:11;;;;;;;0.20;0.20;;;;;;;20.79;67.07;101554.34;2088798;28;20067;-66
2022/08/23 00:06:16;;;;;;;0.20;0.20;;;;;;;20.79;66.73;101559.84;2087881;28;20087;-65
2022/08/23 00:07:20;;;;;;;0.20;0.20;;;;;;;20.76;66.91;101558.69;2087792;28;20057;-65
2022/08/23 00:08:23;;;;;;;0.10;0.10;;;;;;;20.77;66.54;101556.72;2088071;28;20060;-65
2022/08/23 00:09:29;;;;;;;0.30;0.30;;;;;;;20.76;66.83;101555.13;2081432;28;20049;-65
2022/08/23 00:10:34;;;;;;;0.20;0.20;;;;;;;20.74;66.89;101552.00;2081540;28;20091;-66
2022/08/23 00:11:42;;;;;;;0.10;0.10;;;;;;;20.75;66.84;101548.88;2089016;28;20053;-65
2022/08/23 00:12:46;;;;;;;0.20;0.20;;;;;;;20.71;67.17;101550.84;2074724;28;20049;-66
2022/08/23 00:13:57;;;;;;;0.13;0.13;;;;;;;20.71;66.98;101558.28;2073512;28;20049;-65
2022/08/23 00:15:00;;;;;;;0.20;0.20;;;;;;;20.68;67.08;101548.06;2071809;28;20119;-65
2022/08/23 00:16:04;;;;;;;0.10;0.10;;;;;;;20.68;67.02;101548.06;2073545;28;20125;-64
2022/08/23 00:17:08;;;;;;;0.10;0.10;;;;;;;20.68;67.22;101551.63;2073626;28;20065;-66
2022/08/23 00:18:13;;;;;;;0.20;0.20;;;;;;;20.66;67.30;101545.72;2072520;28;20141;-65
2022/08/23 00:19:21;;;;;;;0.20;0.20;;;;;;;20.65;66.80;101544.16;2072734;28;20128;-64
2022/08/23 00:20:26;;;;;;;0.20;0.20;;;;;;;20.62;67.10;101549.66;2072646;28;20125;-65
2022/08/23 00:21:28;;;;;;;0.20;0.20;;;;;;;20.61;67.45;101537.88;2072473;28;20074;-65
2022/08/23 00:22:32;;;;;;;0.13;0.13;;;;;;;20.60;67.25;101541.00;2073513;28;20549;-65
2022/08/23 00:23:34;;;;;;;0.10;0.10;;;;;;;20.60;67.22;101543.75;2071958;28;20085;-65
2022/08/23 00:24:38;;;;;;;0.20;0.20;;;;;;;20.59;67.69;101536.72;2063633;28;20547;-65
2022/08/23 00:25:41;;;;;;;0.20;0.20;;;;;;;20.55;67.91;101528.47;2078646;28;20577;-65
2022/08/23 00:26:58;;;;;;;0.30;0.30;;;;;;;20.51;67.53;101533.19;2078367;28;20124;-65
2022/08/23 00:28:01;;;;;;;0.20;0.20;;;;;;;20.50;67.66;101536.31;2072260;28;20054;-67
2022/08/23 00:29:03;;;;;;;0.20;0.20;;;;;;;20.50;67.65;101531.59;2093968;28;20079;-65
2022/08/23 00:30:09;;;;;;;0.20;0.20;;;;;;;20.50;67.74;101531.59;2091342;28;20091;-65
2022/08/23 00:31:11;;;;;;;0.20;0.20;;;;;;;20.45;68.18;101532.00;2082613;28;20107;-66
2022/08/23 00:32:19;;;;;;;0.30;0.30;;;;;;;20.49;67.94;101534.75;2078799;28;20054;-65
2022/08/23 00:33:21;;;;;;;0.20;0.20;;;;;;;20.44;68.34;101527.69;2081362;28;20110;-65
2022/08/23 00:34:27;;;;;;;0.20;0.20;;;;;;;20.47;68.44;101526.91;2079113;28;20081;-66
2022/08/23 00:35:28;;;;;;;0.20;0.20;;;;;;;20.46;68.71;101524.53;2095389;28;20093;-65
2022/08/23 00:36:32;;;;;;;0.20;0.20;;;;;;;20.45;68.63;101523.00;2087494;28;20123;-66
2022/08/23 00:37:36;;;;;;;0.20;0.20;;;;;;;20.43;68.72;101530.81;2080366;28;20061;-64
2022/08/23 00:38:39;;;;;;;0.20;0.20;;;;;;;20.43;68.44;101523.38;2087570;28;20496;-66
2022/08/23 00:39:41;;;;;;;0.20;0.20;;;;;;;20.41;69.17;101530.41;2081029;28;20057;-64
2022/08/23 00:40:50;;;;;;;0.20;0.20;;;;;;;20.42;69.24;101521.03;2078255;28;20061;-65
2022/08/23 00:41:58;;;;;;;0.30;0.30;;;;;;;20.38;69.39;101531.19;2078492;28;20394;-65
2022/08/23 00:47:41;;;;;;;0.30;0.30;;;;;;;20.28;69.75;101523.75;2077537;28;20045;-66
2022/08/23 00:48:46;;;;;;;0.20;0.20;;;;;;;20.25;70.32;101519.81;2073328;28;20556;-65
2022/08/23 00:49:56;;;;;;;0.30;0.30;;;;;;;20.30;69.63;101518.66;2080720;28;20123;-65
2022/08/23 00:51:05;;;;;;;0.20;0.20;;;;;;;20.30;69.98;101521.38;2075599;28;20085;-65
2022/08/23 00:52:19;;;;;;;0.20;0.20;;;;;;;20.28;69.81;101513.56;2073375;28;20073;-66
2022/08/23 00:53:24;;;;;;;0.20;0.20;;;;;;;20.29;69.54;101519.81;2071131;28;20056;-64
2022/08/23 00:54:29;;;;;;;0.20;0.20;;;;;;;20.30;69.31;101521.38;2073274;28;20072;-65
2022/08/23 00:55:33;;;;;;;0.20;0.20;;;;;;;20.29;69.56;101517.09;2074005;28;20096;-65
2022/08/23 00:56:38;;;;;;;0.20;0.20;;;;;;;20.28;69.29;101519.03;2086494;28;20053;-66
2022/08/23 00:57:40;;;;;;;0.20;0.20;;;;;;;20.28;69.51;101513.56;2088107;28;20076;-64
2022/08/23 00:58:48;;;;;;;0.25;0.25;;;;;;;20.27;69.56;101517.47;2081560;28;20493;-64
2022/08/23 00:59:51;;;;;;;0.20;0.20;;;;;;;20.28;69.64;101518.28;2073659;28;20065;-67
2022/08/23 01:00:56;;;;;;;0.20;0.20;;;;;;;20.29;69.77;101508.84;2073888;28;20054;-63
2022/08/23 01:01:59;;;;;;;0.20;0.20;;;;;;;20.28;69.74;101512.78;2074134;28;20081;-63
2022/08/23 01:03:07;;;;;;;0.30;0.30;;;;;;;20.30;69.65;101521.38;2073310;28;20144;-65
2022/08/23 01:04:11;;;;;;;0.20;0.20;;;;;;;20.28;70.07;101512.78;2077693;28;20096;-64
2022/08/23 01:05:18;;;;;;;0.20;0.20;;;;;;;20.27;70.23;101511.19;2090266;28;20041;-64
2022/08/23 01:06:33;;;;;;;0.28;0.28;;;;;;;20.29;69.95;101514.34;2087846;28;20048;-65
2022/08/23 01:07:46;;;;;;;0.20;0.20;;;;;;;20.21;70.25;101510.81;2081066;28;20066;-66
2022/08/23 01:08:54;;;;;;;0.28;0.28;;;;;;;20.23;70.11;101516.66;2072715;28;20057;-65
2022/08/23 01:10:01;;;;;;;0.30;0.30;;;;;;;20.22;70.50;101512.38;2073068;28;20053;-65
2022/08/23 01:11:08;;;;;;;0.22;0.22;;;;;;;20.21;70.30;101513.56;2073941;28;20058;-65
2022/08/23 01:12:16;;;;;;;0.20;0.20;;;;;;;20.19;70.40;101512.34;2085758;28;20053;-65
2022/08/23 01:13:29;;;;;;;0.20;0.20;;;;;;;20.17;70.48;101517.47;2077944;28;20042;-65
2022/08/23 01:14:37;;;;;;;0.20;0.20;;;;;;;20.16;70.79;101510.41;2086970;28;20087;-65
2022/08/23 01:15:46;;;;;;;0.20;0.20;;;;;;;20.16;70.61;101524.09;2085232;28;20049;-65
2022/08/23 01:16:52;;;;;;;0.20;0.20;;;;;;;20.15;70.94;101520.56;2075063;28;20054;-65
2022/08/23 01:18:01;;;;;;;0.30;0.30;;;;;;;20.11;71.53;101524.44;2072963;28;20061;-65
2022/08/23 01:19:12;;;;;;;0.30;0.30;;;;;;;20.06;71.48;101520.13;2074232;28;20506;-66
2022/08/23 01:20:23;;;;;;;0.30;0.30;;;;;;;20.03;71.90;101520.13;2072992;28;20042;-65
2022/08/23 01:21:32;;;;;;;0.30;0.30;;;;;;;19.99;72.07;101522.09;2067528;28;20517;-65
2022/08/23 01:22:50;;;;;;;0.30;0.30;;;;;;;19.95;72.13;101524.81;2074149;28;20050;-66
2022/08/23 01:23:57;;;;;;;0.25;0.25;;;;;;;19.94;72.19;101522.44;2073233;28;20045;-65
2022/08/23 01:25:03;;;;;;;0.20;0.20;;;;;;;19.96;72.34;101525.59;2080171;28;20046;-65
2022/08/23 01:26:20;;;;;;;0.28;0.28;;;;;;;19.95;72.51;101521.28;2073043;28;20045;-65
2022/08/23 01:27:24;;;;;;;0.20;0.20;;;;;;;19.97;72.48;101524.41;2082097;28;20164;-65
2022/08/23 01:28:27;;;;;;;0.30;0.30;;;;;;;19.99;72.37;101522.09;2092388;28;20554;-66
2022/08/23 01:29:30;;;;;;;0.30;0.30;;;;;;;20.00;72.31;101524.44;2074837;28;20131;-65
2022/08/23 01:30:34;;;;;;;0.20;0.20;;;;;;;20.01;72.55;101523.25;2089378;28;20052;-64
2022/08/23 01:31:37;;;;;;;0.30;0.30;;;;;;;19.99;72.23;101517.41;2088974;28;20128;-65
2022/08/23 01:32:45;;;;;;;0.30;0.30;;;;;;;20.05;72.13;101526.00;2084790;28;20120;-65
2022/08/23 01:33:57;;;;;;;0.38;0.38;;;;;;;20.00;71.68;101512.69;2082772;28;20081;-65
2022/08/23 01:34:59;;;;;;;0.20;0.20;;;;;;;20.01;72.30;101519.75;2087083;28;20608;-66
2022/08/23 01:36:04;;;;;;;0.30;0.30;;;;;;;20.05;72.12;101512.31;2080120;28;20203;-65
2022/08/23 01:37:12;;;;;;;0.20;0.20;;;;;;;20.02;71.79;101522.09;2074016;28;20089;-65
2022/08/23 01:38:16;;;;;;;0.25;0.25;;;;;;;20.00;72.48;101518.16;2087239;28;20409;-64
2022/08/23 01:39:24;;;;;;;0.28;0.28;;;;;;;20.01;72.43;101511.53;2076027;28;20358;-66
2022/08/23 01:40:28;;;;;;;0.30;0.30;;;;;;;20.00;72.34;101516.22;2081893;28;20098;-66
2022/08/23 01:41:30;;;;;;;0.30;0.30;;;;;;;19.96;72.67;101517.38;2080867;28;20057;-66
2022/08/23 01:42:34;;;;;;;0.35;0.35;;;;;;;19.98;72.36;101515.03;2072756;28;20116;-66
2022/08/23 01:43:36;;;;;;;0.30;0.30;;;;;;;19.91;72.74;101515.81;2068338;28;20089;-64
2022/08/23 01:44:40;;;;;;;0.30;0.30;;;;;;;19.92;72.42;101516.56;2072021;28;20045;-65
2022/08/23 01:45:42;;;;;;;0.30;0.30;;;;;;;19.87;73.12;101511.47;2073332;28;20104;-65
2022/08/23 01:46:47;;;;;;;0.35;0.35;;;;;;;19.85;72.85;101516.56;2068193;28;20049;-65
2022/08/23 01:47:57;;;;;;;0.30;0.30;;;;;;;19.78;73.55;101522.00;2082175;28;20600;-66
2022/08/23 01:49:01;;;;;;;0.25;0.25;;;;;;;19.75;73.47;101512.63;2073967;28;20050;-64
2022/08/23 01:50:11;;;;;;;0.30;0.30;;;;;;;19.75;73.60;101515.34;2070298;28;20045;-66
2022/08/23 01:51:16;;;;;;;0.30;0.30;;;;;;;19.76;73.59;101516.13;2081048;28;20045;-64
2022/08/23 01:52:20;;;;;;;0.30;0.30;;;;;;;19.78;73.26;101516.53;2072919;28;20046;-65
2022/08/23 01:53:23;;;;;;;0.30;0.30;;;;;;;19.77;73.41;101517.69;2073566;28;20502;-65
2022/08/23 01:54:28;;;;;;;0.30;0.30;;;;;;;19.81;73.31;101521.22;2070157;28;20046;-65
2022/08/23 01:55:30;;;;;;;0.30;0.30;;;;;;;19.78;73.25;101516.53;2064879;28;20101;-65
2022/08/23 01:56:36;;;;;;;0.20;0.20;;;;;;;19.78;73.46;101517.31;2070002;28;20111;-65
2022/08/23 01:57:43;;;;;;;0.30;0.30;;;;;;;19.80;73.19;101519.66;2067125;28;20054;-65
2022/08/23 01:58:51;;;;;;;0.30;0.30;;;;;;;19.78;73.24;101522.00;2074078;28;21018;-65
2022/08/23 01:59:54;;;;;;;0.32;0.32;;;;;;;19.79;73.15;101516.13;2074509;28;20065;-64
2022/08/23 02:00:57;;;;;;;0.30;0.30;;;;;;;19.77;73.36;101512.22;2066690;28;20521;-64
2022/08/23 02:01:59;;;;;;;0.20;0.20;;;;;;;19.77;73.34;101510.28;2072771;28;20517;-65
2022/08/23 02:03:03;;;;;;;0.30;0.30;;;;;;;19.76;73.01;101519.66;2079461;28;20050;-65
2022/08/23 02:04:06;;;;;;;0.20;0.20;;;;;;;19.74;73.33;101518.47;2074499;28;20635;-65
2022/08/23 02:05:10;;;;;;;0.20;0.20;;;;;;;19.75;73.50;101517.28;2080795;28;20107;-64
2022/08/23 02:06:12;;;;;;;0.30;0.30;;;;;;;19.73;73.57;101516.88;2073831;28;20457;-65
2022/08/23 02:07:16;;;;;;;0.30;0.30;;;;;;;19.74;73.61;101518.47;2080845;28;20045;-65
2022/08/23 02:09:42;;;;;;;0.32;0.32;;;;;;;19.70;73.62;101518.47;2062140;28;20058;-65
2022/08/23 02:10:44;;;;;;;0.30;0.30;;;;;;;19.71;73.55;101511.03;2073485;28;20421;-65
2022/08/23 02:11:49;;;;;;;0.35;0.35;;;;;;;19.71;73.53;101524.72;2080676;28;20061;-65
2022/08/23 02:12:52;;;;;;;0.30;0.30;;;;;;;19.71;73.68;101519.25;2071681;28;20058;-65
2022/08/23 02:14:00;;;;;;;0.30;0.30;;;;;;;19.72;73.40;101521.59;2074264;28;20057;-65
2022/08/23 02:15:09;;;;;;;0.40;0.40;;;;;;;19.70;73.62;101521.19;2074315;28;20041;-64
2022/08/23 02:16:22;;;;;;;0.30;0.30;;;;;;;19.70;73.36;101523.16;2073998;28;20045;-65
2022/08/23 02:17:26;;;;;;;0.20;0.20;;;;;;;19.70;73.38;101520.41;2079626;28;20053;-65
2022/08/23 02:18:32;;;;;;;0.25;0.25;;;;;;;19.72;73.18;101518.06;2089594;28;20060;-64
2022/08/23 02:19:36;;;;;;;0.30;0.30;;;;;;;19.73;73.04;101522.38;2079890;28;20409;-65
2022/08/23 02:20:44;;;;;;;0.30;0.30;;;;;;;19.73;73.07;101525.09;2079494;28;20052;-65
2022/08/23 02:21:47;;;;;;;0.20;0.20;;;;;;;19.72;73.15;101521.59;2073147;28;20088;-66
2022/08/23 02:22:51;;;;;;;0.30;0.30;;;;;;;19.74;72.69;101526.69;2085721;28;20045;-66
2022/08/23 02:23:53;;;;;;;0.20;0.20;;;;;;;19.69;73.07;101527.06;2084812;28;20115;-65
2022/08/23 02:24:59;;;;;;;0.30;0.30;;;;;;;19.68;73.11;101520.78;2089509;28;20068;-65
2022/08/23 02:26:04;;;;;;;0.28;0.28;;;;;;;19.62;73.50;101525.06;2080842;28;20046;-65
2022/08/23 02:27:08;;;;;;;0.30;0.30;;;;;;;19.60;73.31;101521.16;2081489;28;20049;-65
2022/08/23 02:28:13;;;;;;;0.20;0.20;;;;;;;19.53;73.95;101518.38;2089104;28;20072;-66
2022/08/23 02:29:20;;;;;;;0.30;0.30;;;;;;;19.54;73.67;101517.19;2078503;28;20053;-65
2022/08/23 02:30:24;;;;;;;0.20;0.20;;;;;;;19.48;74.01;101518.75;2076628;28;20100;-64
2022/08/23 02:31:27;;;;;;;0.30;0.30;;;;;;;19.44;74.35;101520.69;2080451;28;20107;-64
2022/08/23 02:32:30;;;;;;;0.30;0.30;;;;;;;19.42;74.38;101526.56;2083741;28;20098;-65
2022/08/23 02:33:37;;;;;;;0.30;0.30;;;;;;;19.40;74.70;101522.59;2086361;28;20057;-65
2022/08/23 02:34:40;;;;;;;0.30;0.30;;;;;;;19.39;74.16;101523.78;2088825;28;20049;-65
2022/08/23 02:35:44;;;;;;;0.20;0.20;;;;;;;19.38;74.51;101514.00;2081637;28;20125;-65
2022/08/23 02:36:46;;;;;;;0.30;0.30;;;;;;;19.37;74.38;101518.69;2078287;28;20498;-65
2022/08/23 02:37:49;;;;;;;0.30;0.30;;;;;;;19.33;74.94;101517.13;2080701;28;20053;-64
2022/08/23 02:38:52;;;;;;;0.20;0.20;;;;;;;19.31;74.66;101521.00;2084995;28;20052;-65
2022/08/23 02:39:55;;;;;;;0.30;0.30;;;;;;;19.31;74.62;101514.75;2075375;28;20046;-64
2022/08/23 02:41:00;;;;;;;0.20;0.20;;;;;;;19.29;74.58;101514.34;2080438;28;20133;-64
2022/08/23 02:42:05;;;;;;;0.20;0.20;;;;;;;19.26;74.95;101515.88;2080781;28;20053;-64
2022/08/23 02:43:10;;;;;;;0.30;0.30;;;;;;;19.24;74.99;101512.72;2070001;28;20092;-64
2022/08/23 02:44:14;;;;;;;0.30;0.30;;;;;;;19.23;74.68;101526.81;2080162;28;20460;-66
2022/08/23 02:45:16;;;;;;;0.35;0.35;;;;;;;19.23;74.69;101521.31;2088729;28;20041;-67
2022/08/23 02:46:22;;;;;;;0.30;0.30;;;;;;;19.22;75.02;101517.78;2072331;28;20464;-65
2022/08/23 02:47:26;;;;;;;0.30;0.30;;;;;;;19.21;74.93;101518.97;2072818;28;20068;-66
2022/08/23 02:48:58;;;;;;;0.28;0.28;;;;;;;19.14;75.28;101518.91;2083578;28;20057;-66
2022/08/23 02:50:00;;;;;;;0.30;0.30;;;;;;;19.14;75.14;101513.44;2072802;28;20129;-65
2022/08/23 02:51:05;;;;;;;0.32;0.32;;;;;;;19.16;74.96;101513.84;2091422;28;20044;-65
2022/08/23 02:52:08;;;;;;;0.20;0.20;;;;;;;19.14;75.21;101520.84;2079051;28;20049;-66
2022/08/23 02:53:12;;;;;;;0.30;0.30;;;;;;;19.10;75.39;101512.66;2072181;28;20054;-65
2022/08/23 02:54:15;;;;;;;0.30;0.30;;;;;;;19.11;75.25;101527.09;2071109;28;20494;-65
2022/08/23 02:55:19;;;;;;;0.35;0.35;;;;;;;19.08;75.35;101516.91;2080515;28;20160;-65
2022/08/23 02:56:24;;;;;;;0.28;0.28;;;;;;;19.05;75.39;101520.41;2073978;28;20561;-65
2022/08/23 02:57:27;;;;;;;0.30;0.30;;;;;;;19.03;75.63;101515.31;2082704;28;20057;-67
2022/08/23 02:58:34;;;;;;;0.30;0.30;;;;;;;19.01;75.50;101514.91;2080961;28;20053;-66
2022/08/23 02:59:37;;;;;;;0.30;0.30;;;;;;;18.98;75.69;101517.66;2074592;28;20525;-66
2022/08/23 03:00:40;;;;;;;0.30;0.30;;;;;;;18.98;75.84;101518.41;2077397;28;20065;-64
2022/08/23 03:01:44;;;;;;;0.30;0.30;;;;;;;19.00;75.65;101515.28;2080660;28;20072;-67
2022/08/23 03:02:58;;;;;;;0.30;0.30;;;;;;;18.99;75.34;101514.53;2080475;28;20143;-65
2022/08/23 03:04:03;;;;;;;0.28;0.28;;;;;;;19.00;75.71;101516.09;2090687;28;20063;-65
2022/08/23 03:05:09;;;;;;;0.30;0.30;;;;;;;19.01;75.70;101514.91;2086956;28;20068;-66
2022/08/23 03:06:12;;;;;;;0.30;0.30;;;;;;;18.99;75.87;101509.06;2080486;28;20149;-65
2022/08/23 03:07:29;;;;;;;0.30;0.30;;;;;;;18.98;75.65;101510.19;2087494;28;20152;-67
2022/08/23 03:08:31;;;;;;;0.38;0.38;;;;;;;19.03;75.25;101512.59;2074651;28;20053;-66
2022/08/23 03:09:35;;;;;;;0.30;0.30;;;;;;;19.03;75.58;101515.31;2080160;28;20088;-66
2022/08/23 03:10:45;;;;;;;0.30;0.30;;;;;;;19.05;75.19;101513.00;2087877;28;20455;-66
2022/08/23 03:11:50;;;;;;;0.30;0.30;;;;;;;19.03;75.43;101514.53;2080372;28;20544;-66
2022/08/23 03:12:54;;;;;;;0.30;0.30;;;;;;;19.01;75.34;101517.66;2080465;28;20135;-66
2022/08/23 03:13:57;;;;;;;0.30;0.30;;;;;;;19.03;75.44;101515.31;2083655;28;20055;-64
2022/08/23 03:15:00;;;;;;;0.30;0.30;;;;;;;19.01;75.60;101506.69;2080259;28;20057;-65
2022/08/23 03:16:03;;;;;;;0.30;0.30;;;;;;;19.02;75.29;101521.19;2079547;28;20053;-65
2022/08/23 03:17:06;;;;;;;0.28;0.28;;;;;;;18.97;75.56;101516.84;2068522;28;20053;-65
2022/08/23 03:18:11;;;;;;;0.30;0.30;;;;;;;18.99;75.31;101513.72;2078180;28;20136;-65
2022/08/23 03:19:14;;;;;;;0.30;0.30;;;;;;;18.94;75.60;101512.16;2082270;28;20065;-65
2022/08/23 03:20:18;;;;;;;0.30;0.30;;;;;;;18.94;75.57;101509.41;2088397;28;20064;-66
2022/08/23 03:21:23;;;;;;;0.30;0.30;;;;;;;18.89;75.74;101515.22;2080942;28;20049;-66
2022/08/23 03:22:30;;;;;;;0.30;0.30;;;;;;;18.86;75.95;101516.00;2083236;28;20053;-65
2022/08/23 03:23:33;;;;;;;0.40;0.40;;;;;;;18.85;76.05;101514.41;2088412;28;20053;-66
2022/08/23 03:24:36;;;;;;;0.32;0.32;;;;;;;18.81;76.18;101510.88;2087949;28;20061;-66
2022/08/23 03:25:39;;;;;;;0.40;0.40;;;;;;;18.81;76.12;101513.59;2087923;28;20041;-65
2022/08/23 03:26:57;;;;;;;0.30;0.30;;;;;;;18.81;75.95;101512.81;2066004;28;20058;-66
2022/08/23 03:28:03;;;;;;;0.30;0.30;;;;;;;18.81;75.87;101516.34;2080325;28;20066;-66
2022/08/23 03:29:08;;;;;;;0.28;0.28;;;;;;;18.81;76.21;101516.34;2087936;28;20059;-66
2022/08/23 03:30:24;;;;;;;0.30;0.30;;;;;;;18.80;75.98;101514.00;2077866;28;20065;-66
2022/08/23 03:31:33;;;;;;;0.30;0.30;;;;;;;18.83;76.01;101515.97;2078671;28;20041;-66
2022/08/23 03:32:46;;;;;;;0.30;0.30;;;;;;;18.81;76.02;101508.13;2081501;28;20084;-65
2022/08/23 03:33:52;;;;;;;0.40;0.40;;;;;;;18.83;75.99;101511.28;2067511;28;20111;-66
2022/08/23 03:34:55;;;;;;;0.30;0.30;;;;;;;18.84;75.67;101509.31;2071945;28;20088;-66
2022/08/23 03:36:01;;;;;;;0.40;0.40;;;;;;;18.85;75.73;101517.13;2065387;28;20097;-65
2022/08/23 03:37:08;;;;;;;0.30;0.30;;;;;;;18.83;75.81;101513.22;2067140;28;20078;-65
2022/08/23 03:38:12;;;;;;;0.30;0.30;;;;;;;18.82;75.99;101520.63;2076168;28;20426;-65
2022/08/23 03:39:15;;;;;;;0.30;0.30;;;;;;;18.81;76.15;101519.06;2086728;28;20573;-65
2022/08/23 03:40:18;;;;;;;0.30;0.30;;;;;;;18.80;75.98;101511.25;2081645;28;20139;-65
2022/08/23 03:41:27;;;;;;;0.30;0.30;;;;;;;18.81;76.27;101508.13;2077034;28;20042;-65
2022/08/23 03:42:32;;;;;;;0.38;0.38;;;;;;;18.82;75.96;101525.34;2094719;28;20421;-65
2022/08/23 03:43:36;;;;;;;0.30;0.30;;;;;;;18.82;75.96;101519.88;2090980;28;20139;-65
2022/08/23 03:44:38;;;;;;;0.30;0.30;;;;;;;18.79;76.07;101515.94;2073971;28;20053;-65
2022/08/23 03:45:42;;;;;;;0.30;0.30;;;;;;;18.78;76.05;101519.84;2079181;28;20468;-66
2022/08/23 03:46:46;;;;;;;0.30;0.30;;;;;;;18.78;76.08;101522.56;2075151;28;20065;-65
2022/08/23 03:47:48;;;;;;;0.20;0.20;;;;;;;18.78;76.20;101522.56;2079968;28;20049;-65
2022/08/23 03:48:54;;;;;;;0.40;0.40;;;;;;;18.81;76.09;101530.03;2087030;28;20059;-68
2022/08/23 03:50:04;;;;;;;;;;;;;;;18.59;76.47;101522.81;2075178;28;20050;-65
2022/08/23 03:51:11;;;;;;;0.30;0.30;;;;;;;18.69;75.98;101527.59;2060539;28;20025;-65
2022/08/23 03:52:14;;;;;;;0.22;0.22;;;;;;;18.75;75.93;101528.00;2071969;28;20596;-67
2022/08/23 03:53:17;;;;;;;0.30;0.30;;;;;;;18.78;76.07;101525.31;2074874;28;20541;-64
2022/08/23 03:54:20;;;;;;;0.35;0.35;;;;;;;18.78;75.77;101536.25;2072919;28;20057;-65
2022/08/23 03:55:28;;;;;;;0.20;0.20;;;;;;;18.80;75.85;101527.66;2073113;28;20053;-65
2022/08/23 03:56:33;;;;;;;0.30;0.30;;;;;;;18.81;75.87;101529.22;2078231;28;20133;-66
2022/08/23 03:57:39;;;;;;;0.30;0.30;;;;;;;18.80;75.84;101528.47;2079657;28;20511;-65
2022/08/23 03:58:43;;;;;;;0.28;0.28;;;;;;;18.80;75.88;101527.66;2087170;28;20119;-67
2022/08/23 03:59:47;;;;;;;0.25;0.25;;;;;;;18.78;75.85;101525.31;2091338;28;20139;-65
2022/08/23 04:00:50;;;;;;;0.30;0.30;;;;;;;18.80;75.69;101533.13;2080846;28;20595;-65
2022/08/23 04:01:54;;;;;;;0.30;0.30;;;;;;;18.79;75.60;101521.41;2076452;28;20073;-64
2022/08/23 04:02:56;;;;;;;0.30;0.30;;;;;;;18.78;75.55;101525.31;2071461;28;20082;-65
2022/08/23 04:04:05;;;;;;;0.30;0.30;;;;;;;18.80;75.38;101530.41;2079480;28;20123;-66
2022/08/23 04:05:12;;;;;;;0.40;0.40;;;;;;;18.78;75.38;101525.31;2076686;28;20482;-65
2022/08/23 04:06:34;;;;;;;0.30;0.30;;;;;;;18.74;75.22;101519.00;2074432;28;20099;-65
2022/08/23 04:07:37;;;;;;;0.30;0.30;;;;;;;18.74;75.36;101524.47;2079886;28;20416;-65
2022/08/23 04:08:41;;;;;;;0.30;0.30;;;;;;;18.76;75.42;101516.69;2078961;28;20053;-65
2022/08/23 04:09:43;;;;;;;0.30;0.30;;;;;;;18.76;75.10;101521.38;2078681;28;20046;-65
2022/08/23 04:10:50;;;;;;;0.40;0.40;;;;;;;18.73;75.41;101519.38;2080699;28;20092;-66
2022/08/23 04:11:52;;;;;;;0.40;0.40;;;;;;;18.74;75.36;101524.47;2086704;28;20451;-65
2022/08/23 04:13:14;;;;;;;0.40;0.40;;;;;;;18.70;75.56;101526.41;2068575;28;20088;-66
2022/08/23 04:14:18;;;;;;;0.40;0.40;;;;;;;18.70;75.73;101528.34;2074569;28;20049;-65
2022/08/23 04:15:23;;;;;;;0.40;0.40;;;;;;;18.69;76.37;101527.59;2086339;28;20049;-66
2022/08/23 04:16:28;;;;;;;0.40;0.40;;;;;;;18.66;76.06;101530.28;2075669;28;20076;-67
2022/08/23 04:17:32;;;;;;;0.40;0.40;;;;;;;18.65;76.46;101528.69;2073271;28;20046;-66
2022/08/23 04:18:38;;;;;;;0.40;0.40;;;;;;;18.62;76.04;101530.25;2088056;28;20052;-64
2022/08/23 04:19:42;;;;;;;0.50;0.50;;;;;;;18.59;76.25;101533.75;2075640;28;20210;-67
2022/08/23 04:20:50;;;;;;;0.50;0.50;;;;;;;18.56;76.53;101528.25;2068858;28;20497;-66
2022/08/23 04:21:57;;;;;;;0.50;0.50;;;;;;;18.51;76.90;101532.09;2070940;28;20057;-65
2022/08/23 04:23:04;;;;;;;0.50;0.50;;;;;;;18.47;77.00;101538.72;2063640;28;20161;-65
2022/08/23 04:24:18;;;;;;;0.60;0.60;;;;;;;18.43;76.92;101529.69;2066636;28;20054;-65
2022/08/23 04:25:21;;;;;;;0.50;0.50;;;;;;;18.38;77.17;101533.53;2072070;28;20493;-66
2022/08/23 04:26:38;;;;;;;0.50;0.50;;;;;;;18.35;77.46;101545.19;2065704;28;20050;-66
2022/08/23 04:27:40;;;;;;;0.57;0.57;;;;;;;18.36;77.00;101544.03;2063816;28;20140;-66
2022/08/23 04:28:46;;;;;;;0.50;0.50;;;;;;;18.36;77.13;101541.28;2072911;28;20050;-65
2022/08/23 04:29:49;;;;;;;0.60;0.60;;;;;;;18.37;77.01;101544.81;2079962;28;20049;-65
2022/08/23 04:30:52;;;;;;;0.50;0.50;;;;;;;18.37;77.13;101545.63;2076462;28;20060;-65
2022/08/23 04:31:58;;;;;;;0.40;0.40;;;;;;;18.37;77.08;101534.69;2073162;28;20085;-65
2022/08/23 04:33:01;;;;;;;0.40;0.40;;;;;;;18.37;77.07;101544.81;2080171;28;20049;-65
2022/08/23 04:34:07;;;;;;;0.50;0.50;;;;;;;18.36;77.13;101538.56;2074220;28;20162;-66
2022/08/23 04:35:11;;;;;;;0.50;0.50;;;;;;;18.36;77.13;101538.56;2072994;28;20049;-66
2022/08/23 04:36:16;;;;;;;0.52;0.52;;;;;;;18.36;77.21;101546.75;2072034;28;20421;-65
2022/08/23 04:37:19;;;;;;;0.50;0.50;;;;;;;18.36;77.13;101546.75;2069455;28;20042;-66
2022/08/23 04:38:24;;;;;;;0.50;0.50;;;;;;;18.40;76.91;101544.91;2079781;28;20187;-66
2022/08/23 04:42:16;;;;;;;0.50;0.50;;;;;;;18.36;77.28;101541.28;2079586;28;20084;-64
2022/08/23 04:42:19;;;;;;;0.40;0.40;;;;;;;18.31;77.38;101538.94;2079707;28;20042;-65
2022/08/23 04:43:24;;;;;;;0.57;0.57;;;;;;;18.33;77.24;101535.81;2071929;28;20058;-65
2022/08/23 04:44:29;;;;;;;0.50;0.50;;;;;;;18.35;77.06;101534.25;2071861;28;20042;-65
2022/08/23 04:45:37;;;;;;;0.50;0.50;;;;;;;18.35;76.68;101537.00;2072213;28;20050;-65
2022/08/23 04:46:43;;;;;;;0.50;0.50;;;;;;;18.35;76.71;101542.47;2064116;28;20054;-66
2022/08/23 04:47:46;;;;;;;0.50;0.50;;;;;;;18.37;76.84;101531.94;2064186;28;20059;-65
2022/08/23 04:48:50;;;;;;;0.50;0.50;;;;;;;18.41;76.66;101540.22;2070953;28;20062;-65
2022/08/23 04:49:53;;;;;;;0.43;0.43;;;;;;;18.40;76.99;101536.69;2063705;28;20054;-65
2022/08/23 04:50:58;;;;;;;0.50;0.50;;;;;;;18.42;76.98;101541.78;2079831;28;20134;-65
2022/08/23 04:52:01;;;;;;;0.50;0.50;;;;;;;18.42;77.21;101539.84;2072902;28;20057;-66
2022/08/23 04:53:05;;;;;;;0.40;0.40;;;;;;;18.44;76.87;101536.72;2074063;28;20680;-66
2022/08/23 04:54:13;;;;;;;0.50;0.50;;;;;;;18.41;76.97;101535.53;2080915;28;20048;-65
2022/08/23 04:55:55;;;;;;;0.50;0.50;;;;;;;18.35;77.48;101542.47;2079859;28;20068;-66
2022/08/23 04:57:00;;;;;;;0.47;0.47;;;;;;;18.38;77.04;101539.00;2079823;28;20053;-65
2022/08/23 04:58:06;;;;;;;0.50;0.50;;;;;;;18.37;77.13;101537.41;2075541;28;20475;-66
2022/08/23 04:59:18;;;;;;;0.50;0.50;;;;;;;18.34;77.62;101540.91;2064900;28;20059;-66
2022/08/23 05:00:22;;;;;;;0.50;0.50;;;;;;;18.38;76.95;101541.75;2068674;28;20402;-66
2022/08/23 05:01:32;;;;;;;0.50;0.50;;;;;;;18.33;77.49;101544.00;2064029;28;20050;-66
2022/08/23 05:02:36;;;;;;;0.50;0.50;;;;;;;18.37;77.29;101551.09;2063899;28;20054;-65
2022/08/23 05:03:39;;;;;;;0.40;0.40;;;;;;;18.37;77.33;101553.81;2083815;28;20136;-65
2022/08/23 05:04:45;;;;;;;0.40;0.40;;;;;;;18.42;77.01;101550.78;2080049;28;20049;-66
2022/08/23 05:05:49;;;;;;;0.50;0.50;;;;;;;18.42;77.35;101553.50;2088066;28;20143;-65
2022/08/23 05:07:03;;;;;;;0.50;0.50;;;;;;;18.39;77.49;101554.28;2087428;28;20099;-65
2022/08/23 05:08:06;;;;;;;0.50;0.50;;;;;;;18.39;77.55;101550.75;2078463;28;20560;-65
2022/08/23 05:09:10;;;;;;;0.50;0.50;;;;;;;18.39;77.67;101548.81;2088728;28;20519;-65
2022/08/23 05:10:14;;;;;;;0.50;0.50;;;;;;;18.42;77.38;101556.25;2086963;28;20102;-66
2022/08/23 05:11:23;;;;;;;0.55;0.55;;;;;;;18.42;77.61;101550.00;2080195;28;20122;-67
2022/08/23 05:12:27;;;;;;;0.50;0.50;;;;;;;18.45;77.65;101555.50;2080229;28;20053;-65
2022/08/23 05:13:31;;;;;;;0.50;0.50;;;;;;;18.48;77.35;101553.94;2087363;28;20060;-65
2022/08/23 05:14:38;;;;;;;0.50;0.50;;;;;;;18.49;77.51;101553.56;2087281;28;20150;-66